Time;durP1;ratioP1;P1;durP2;ratioP2;P2;SDS_P1;SDS_P2;PMS_P1;PMS_P2;Temp;Humidity;BMP_temperature;BMP_pressure;BME280_temperature;BME280_humidity;BME280_pressure;Samples;Min_cycle;Max_cycle;Signal;HPM_P1;HPM_P2
2023/01/16 00:01:27;;;;;;;16.93;10.57;;;;;;;4.64;97.89;97042.41;5009513;28;20253;-74
2023/01/16 00:03:54;;;;;;;20.57;11.70;;;;;;;4.76;97.36;97042.09;5042535;28;20188;-75
2023/01/16 00:06:21;;;;;;;17.90;10.97;;;;;;;4.87;97.99;97041.88;5009762;28;20198;-74
2023/01/16 00:08:50;;;;;;;19.17;11.40;;;;;;;4.69;97.25;97032.03;5010921;28;20188;-74
2023/01/16 00:11:17;;;;;;;15.37;10.43;;;;;;;4.75;97.22;97027.63;5009222;28;20193;-74
2023/01/16 00:13:44;;;;;;;19.30;10.77;;;;;;;4.30;96.39;96969.69;5010840;28;20194;-75
2023/01/16 00:16:11;;;;;;;18.03;10.20;;;;;;;4.71;96.92;97028.56;5009788;28;20183;-73
2023/01/16 00:18:37;;;;;;;18.63;11.30;;;;;;;4.74;96.38;97028.47;5010769;28;20258;-75
2023/01/16 00:21:04;;;;;;;18.93;12.10;;;;;;;4.87;96.11;97029.88;5009884;28;20321;-72
2023/01/16 00:23:31;;;;;;;22.50;13.37;;;;;;;4.92;95.65;97022.09;5010019;28;20184;-72
2023/01/16 00:25:58;;;;;;;17.50;11.23;;;;;;;4.84;94.67;97029.13;5010724;28;20243;-72
2023/01/16 00:28:25;;;;;;;20.77;11.73;;;;;;;4.79;94.70;97029.22;5008811;28;20199;-74
2023/01/16 00:30:52;;;;;;;19.30;11.53;;;;;;;4.88;94.75;97031.56;5010418;28;20628;-72
2023/01/16 00:33:19;;;;;;;14.60;10.50;;;;;;;4.85;95.03;97023.94;5008870;28;20189;-74
2023/01/16 00:35:46;;;;;;;19.50;12.77;;;;;;;4.72;94.45;97007.16;5010471;28;20192;-75
2023/01/16 00:38:14;;;;;;;23.97;14.77;;;;;;;4.85;93.57;97023.94;5009891;28;20666;-73
2023/01/16 00:40:41;;;;;;;19.80;12.33;;;;;;;4.89;94.38;97027.28;5009666;28;20226;-74
2023/01/16 00:43:08;;;;;;;40.43;20.33;;;;;;;4.79;93.66;97013.84;5010269;28;20211;-74
2023/01/16 00:45:35;;;;;;;27.17;16.17;;;;;;;4.82;93.73;97023.19;5008776;28;20238;-73
2023/01/16 00:48:02;;;;;;;21.53;13.00;;;;;;;4.74;94.38;97020.78;5010123;28;21322;-75
2023/01/16 00:50:29;;;;;;;19.57;13.00;;;;;;;4.77;94.41;97023.28;5008577;28;20244;-74
2023/01/16 00:52:56;;;;;;;20.43;13.13;;;;;;;4.65;94.20;97007.34;5008990;28;20242;-74
2023/01/16 00:55:24;;;;;;;20.63;12.50;;;;;;;4.65;93.46;97013.31;5009063;28;20710;-75
2023/01/16 00:57:51;;;;;;;16.90;11.83;;;;;;;4.74;94.21;97007.13;5009837;28;20192;-75
2023/01/16 01:00:20;;;;;;;20.97;13.03;;;;;;;4.59;93.09;97010.03;5009662;28;20769;-77
2023/01/16 01:02:49;;;;;;;28.23;15.00;;;;;;;4.53;94.33;97005.06;5007199;28;20197;-75
2023/01/16 01:05:16;;;;;;;24.67;14.40;;;;;;;4.53;94.32;97002.50;5009852;28;20235;-77
2023/01/16 01:07:43;;;;;;;24.80;15.67;;;;;;;4.57;93.72;97007.53;5008327;28;20190;-76
2023/01/16 01:10:10;;;;;;;66.97;28.03;;;;;;;4.59;94.27;97004.91;5009863;28;20199;-77
2023/01/16 01:12:38;;;;;;;53.60;24.83;;;;;;;4.56;94.30;97008.38;5008430;28;20229;-76
2023/01/16 01:15:06;;;;;;;31.67;17.33;;;;;;;4.50;93.24;97007.69;5009528;28;20191;-73
2023/01/16 01:17:32;;;;;;;23.80;15.37;;;;;;;4.46;92.85;97001.78;5009283;28;20226;-74
2023/01/16 01:19:59;;;;;;;18.63;13.03;;;;;;;4.41;92.68;97003.59;5006971;28;20338;-73
2023/01/16 01:22:26;;;;;;;17.90;11.50;;;;;;;4.33;93.27;96995.22;5009781;28;20585;-74
2023/01/16 01:24:53;;;;;;;24.73;13.77;;;;;;;4.29;93.62;97000.47;5008080;28;20193;-77
2023/01/16 01:27:20;;;;;;;23.27;12.80;;;;;;;3.93;93.66;96948.31;5009470;28;20195;-75
2023/01/16 01:29:47;;;;;;;22.87;13.30;;;;;;;4.03;94.91;96991.63;5008014;28;20699;-76
2023/01/16 01:32:14;;;;;;;22.07;13.87;;;;;;;4.09;95.23;96985.53;5009376;28;20196;-74
2023/01/16 01:34:41;;;;;;;22.93;13.80;;;;;;;4.10;94.94;96976.97;5007468;28;20184;-76
2023/01/16 01:37:08;;;;;;;42.93;15.67;;;;;;;4.01;95.27;96979.72;5008341;28;20191;-73
2023/01/16 01:39:35;;;;;;;28.17;14.40;;;;;;;4.10;96.85;96982.09;5007496;28;20683;-74
2023/01/16 01:44:55;;;;;;;20.00;11.93;;;;;;;3.91;97.46;96968.00;5009141;28;20198;-73
2023/01/16 01:47:28;;;;;;;20.53;11.37;;;;;;;3.96;96.11;96958.47;5008035;28;20204;-76
2023/01/16 01:49:59;;;;;;;28.47;14.37;;;;;;;4.23;95.65;96957.88;5008483;28;20192;-75
2023/01/16 01:52:29;;;;;;;22.53;13.90;;;;;;;4.23;94.39;96960.44;5009005;28;20206;-74
2023/01/16 01:55:04;;;;;;;25.90;15.13;;;;;;;4.16;94.77;96964.03;5007413;28;20672;-77
2023/01/16 01:57:41;;;;;;;25.90;14.37;;;;;;;4.23;94.41;96957.03;5009004;28;20694;-76
2023/01/16 02:00:16;;;;;;;25.37;15.50;;;;;;;4.18;93.46;96959.72;5007572;28;20372;-77
2023/01/16 02:02:53;;;;;;;25.80;13.77;;;;;;;4.20;93.30;96954.53;5007460;28;20195;-76
2023/01/16 02:05:26;;;;;;;18.00;10.73;;;;;;;4.04;93.50;96956.59;5008692;28;20196;-77
2023/01/16 02:07:54;;;;;;;16.00;9.97;;;;;;;4.02;93.89;96958.34;5007378;28;20223;-76
2023/01/16 02:10:43;;;;;;;16.03;9.17;;;;;;;3.79;92.58;96940.06;5008746;28;20274;-76
2023/01/16 02:13:10;;;;;;;15.40;7.87;;;;;;;4.02;93.22;96959.19;5007446;28;20187;-76
2023/01/16 02:19:15;;;;;;;11.87;7.87;;;;;;;3.99;93.29;96936.22;5008592;28;20540;-75
2023/01/16 02:21:14;;;;;;;12.97;7.73;;;;;;;4.08;92.52;96956.50;5007043;28;20719;-74
2023/01/16 02:23:52;;;;;;;12.00;7.53;;;;;;;4.12;92.84;96952.16;5008665;28;20219;-74
2023/01/16 02:26:42;;;;;;;14.13;7.70;;;;;;;4.11;92.19;96950.47;5007759;28;20219;-74
2023/01/16 02:29:31;;;;;;;11.73;7.93;;;;;;;4.23;92.60;96945.06;5007465;28;20221;-76
2023/01/16 02:31:58;;;;;;;11.67;7.10;;;;;;;4.24;92.60;96948.47;5008389;28;20196;-74
2023/01/16 02:34:27;;;;;;;13.43;7.77;;;;;;;4.19;92.17;96955.41;5006803;28;20192;-74
2023/01/16 02:37:00;;;;;;;14.23;8.73;;;;;;;4.21;92.25;96948.53;5008175;28;20188;-73
2023/01/16 02:39:48;;;;;;;11.97;7.73;;;;;;;4.20;92.17;96952.84;5007505;28;20205;-73
2023/01/16 02:42:39;;;;;;;13.23;8.63;;;;;;;4.13;92.61;96933.34;5007067;28;20220;-73
2023/01/16 02:45:23;;;;;;;13.20;7.87;;;;;;;4.26;92.18;96955.25;5008267;28;20228;-73
2023/01/16 02:48:06;;;;;;;15.73;8.50;;;;;;;4.23;92.57;96957.88;5007066;28;20207;-73
2023/01/16 02:50:47;;;;;;;13.93;8.20;;;;;;;4.22;92.78;96953.66;5007416;28;20188;-73
2023/01/16 02:53:27;;;;;;;16.03;8.50;;;;;;;4.29;93.21;96950.03;5007461;28;20192;-72
2023/01/16 02:56:02;;;;;;;17.50;8.43;;;;;;;4.25;93.14;96939.91;5006634;28;20190;-73
2023/01/16 02:58:33;;;;;;;17.67;9.70;;;;;;;4.32;93.27;96947.44;5008504;28;20218;-71
2023/01/16 03:01:00;;;;;;;16.93;9.83;;;;;;;4.36;92.26;96958.44;5006911;28;20218;-71
2023/01/16 03:03:31;;;;;;;14.47;8.63;;;;;;;4.37;92.68;96950.72;5007655;28;20584;-74
2023/01/16 03:06:10;;;;;;;17.03;9.80;;;;;;;4.47;92.17;96939.34;5008077;28;20188;-75
2023/01/16 03:08:50;;;;;;;19.30;9.93;;;;;;;4.33;92.85;96949.09;5006482;28;20193;-73
2023/01/16 03:11:24;;;;;;;17.33;9.60;;;;;;;4.35;92.77;96952.47;5007894;28;20214;-73
2023/01/16 03:14:05;;;;;;;16.40;9.23;;;;;;;4.36;92.88;96946.47;5006500;28;20274;-72
2023/01/16 03:16:51;;;;;;;16.03;10.63;;;;;;;4.30;93.57;96938.94;5007241;28;20184;-74
2023/01/16 03:19:27;;;;;;;18.90;11.23;;;;;;;4.27;93.62;96936.44;5007889;28;20197;-74
2023/01/16 03:22:00;;;;;;;18.50;11.60;;;;;;;4.33;93.62;96938.03;5006269;28;20741;-74
2023/01/16 03:24:57;;;;;;;16.20;10.00;;;;;;;4.40;93.66;96927.59;5006768;28;20307;-73
2023/01/16 03:27:24;;;;;;;21.40;11.27;;;;;;;4.45;92.88;96918.03;5007409;28;20193;-75
2023/01/16 03:30:10;;;;;;;17.70;10.17;;;;;;;4.40;92.98;96906.22;5006456;28;20192;-72
2023/01/16 03:32:41;;;;;;;17.07;9.90;;;;;;;4.49;93.56;96924.78;5007843;28;20191;-74
2023/01/16 03:35:20;;;;;;;17.60;9.23;;;;;;;4.47;92.62;96920.59;5006262;28;20189;-73
2023/01/16 03:37:52;;;;;;;14.30;8.43;;;;;;;4.56;92.88;96922.91;5006307;28;20679;-72
2023/01/16 03:40:31;;;;;;;15.23;8.63;;;;;;;4.49;92.38;96918.84;5007127;28;20199;-73
2023/01/16 03:43:06;;;;;;;16.67;9.83;;;;;;;4.57;91.87;96914.38;5006223;28;20192;-73
2023/01/16 03:45:42;;;;;;;14.93;8.87;;;;;;;4.46;92.75;96914.63;5007646;28;20191;-73
2023/01/16 03:48:22;;;;;;;15.97;8.93;;;;;;;4.42;92.34;96909.59;5006089;28;20193;-73
2023/01/16 03:50:56;;;;;;;16.37;8.83;;;;;;;4.09;92.45;96870.22;5007497;28;20191;-73
2023/01/16 03:53:29;;;;;;;13.83;7.97;;;;;;;4.27;93.05;96908.22;5007343;28;20191;-73
2023/01/16 03:56:10;;;;;;;14.30;8.47;;;;;;;4.21;93.10;96902.41;5006197;28;20238;-73
2023/01/16 03:58:52;;;;;;;14.17;8.63;;;;;;;4.10;93.88;96912.94;5007384;28;20318;-73
2023/01/16 04:01:37;;;;;;;18.27;10.63;;;;;;;4.07;93.87;96908.69;5005969;28;20215;-74
2023/01/16 04:04:18;;;;;;;21.33;10.63;;;;;;;4.10;95.46;96900.13;5009250;28;20188;-73
2023/01/16 04:06:52;;;;;;;30.10;15.80;;;;;;;4.06;95.21;96907.00;5011367;28;20298;-73
2023/01/16 04:09:32;;;;;;;32.20;17.23;;;;;;;4.12;95.83;96906.88;5008011;28;20586;-74
2023/01/16 04:12:00;;;;;;;31.10;13.97;;;;;;;4.04;95.38;96893.38;5009617;28;20593;-73
2023/01/16 04:14:29;;;;;;;66.87;27.77;;;;;;;4.08;95.78;96899.31;5009646;28;20672;-73
2023/01/16 04:16:57;;;;;;;56.90;25.50;;;;;;;3.94;95.72;96893.63;5007954;28;20623;-74
2023/01/16 04:19:26;;;;;;;28.67;16.27;;;;;;;3.86;95.65;96886.13;5010501;28;20189;-72
2023/01/16 04:21:53;;;;;;;27.10;13.90;;;;;;;3.85;96.50;96881.84;5009378;28;20223;-72
2023/01/16 04:24:20;;;;;;;24.20;13.30;;;;;;;3.80;97.09;96880.28;5009496;28;20215;-72
2023/01/16 04:26:47;;;;;;;22.83;12.17;;;;;;;3.81;96.55;96871.75;5009178;28;20187;-73
2023/01/16 04:29:14;;;;;;;23.43;12.83;;;;;;;3.84;96.40;96866.53;5010587;28;20195;-73
2023/01/16 04:31:41;;;;;;;21.43;11.70;;;;;;;3.90;96.18;96861.28;5001561;28;20205;-73
2023/01/16 04:34:08;;;;;;;20.07;11.67;;;;;;;3.95;95.98;96872.28;4999343;28;20742;-72
2023/01/16 04:36:34;;;;;;;23.13;12.17;;;;;;;3.96;96.49;96864.53;4994597;28;20211;-75
2023/01/16 04:39:01;;;;;;;18.97;10.67;;;;;;;4.00;95.74;96870.44;5009484;28;20187;-74
2023/01/16 04:41:37;;;;;;;20.77;12.40;;;;;;;4.11;95.42;96876.16;5010051;28;20314;-76
2023/01/16 04:44:07;;;;;;;19.63;11.67;;;;;;;4.28;95.08;96866.38;5008427;28;20730;-75
2023/01/16 04:46:37;;;;;;;22.10;12.33;;;;;;;4.18;94.81;96854.66;5009850;28;20676;-76
2023/01/16 04:49:05;;;;;;;16.90;10.83;;;;;;;4.13;95.84;96859.03;5008580;28;20187;-72
2023/01/16 04:51:34;;;;;;;20.63;11.60;;;;;;;4.18;95.22;96846.97;5009528;28;20200;-71
2023/01/16 04:54:02;;;;;;;22.50;12.73;;;;;;;4.39;95.54;96855.84;5009935;28;20196;-72
2023/01/16 04:56:29;;;;;;;21.03;13.60;;;;;;;4.33;94.25;96851.69;5024067;28;20643;-77
2023/01/16 04:58:56;;;;;;;25.83;14.47;;;;;;;4.38;94.49;96842.19;4992764;28;20192;-77
2023/01/16 05:01:23;;;;;;;24.67;14.17;;;;;;;4.21;95.08;96823.81;5008271;28;20589;-76
2023/01/16 05:03:51;;;;;;;24.90;14.73;;;;;;;4.32;95.79;96834.66;5009814;28;20613;-75
2023/01/16 05:06:18;;;;;;;25.33;13.53;;;;;;;4.25;95.46;96838.22;5008304;28;20722;-75
2023/01/16 05:08:45;;;;;;;23.60;13.73;;;;;;;4.20;95.04;96836.66;5009725;28;20287;-74
2023/01/16 05:11:11;;;;;;;25.03;14.83;;;;;;;4.24;95.31;96831.44;5009178;28;20196;-73
2023/01/16 05:13:38;;;;;;;33.70;18.80;;;;;;;4.37;95.22;96830.22;5008769;28;20192;-75
2023/01/16 05:16:06;;;;;;;36.50;19.97;;;;;;;4.62;94.87;96830.44;5007562;28;20202;-74
2023/01/16 05:18:33;;;;;;;39.80;22.23;;;;;;;4.54;94.54;96824.69;5006667;28;20225;-72
2023/01/16 05:21:00;;;;;;;42.43;24.73;;;;;;;4.55;93.96;96827.22;5007999;28;20283;-73
2023/01/16 05:23:27;;;;;;;44.57;23.40;;;;;;;4.41;94.79;96829.28;5039630;28;20204;-74
2023/01/16 05:25:54;;;;;;;36.97;22.47;;;;;;;4.42;94.52;96830.97;5008001;28;20246;-73
2023/01/16 05:28:21;;;;;;;35.43;21.13;;;;;;;4.40;94.33;96830.19;5006538;28;20726;-72
2023/01/16 05:30:48;;;;;;;36.73;20.07;;;;;;;4.36;94.02;96828.56;4991204;28;20198;-73
2023/01/16 05:33:55;;;;;;;35.37;20.07;;;;;;;4.21;94.62;96828.09;4990290;28;20195;-75
2023/01/16 05:37:16;;;;;;;29.50;17.13;;;;;;;4.17;95.07;96821.34;5005099;28;20192;-73
2023/01/16 05:40:36;;;;;;;23.73;14.27;;;;;;;4.21;94.46;96821.25;5008602;28;20566;-73
2023/01/16 05:43:57;;;;;;;25.90;13.10;;;;;;;4.04;94.27;96802.88;5008440;28;20656;-74
2023/01/16 05:47:18;;;;;;;19.60;11.83;;;;;;;4.19;94.01;96823.00;5006646;28;20199;-75
2023/01/16 05:50:38;;;;;;;25.23;14.07;;;;;;;4.10;94.54;96821.50;5007551;28;20695;-73
2023/01/16 05:53:59;;;;;;;28.77;14.47;;;;;;;4.13;94.12;96823.16;5006908;28;20291;-72
2023/01/16 05:57:20;;;;;;;27.50;14.40;;;;;;;4.10;95.00;96815.56;5007799;28;20732;-72
2023/01/16 06:00:40;;;;;;;31.23;15.10;;;;;;;4.25;94.50;96817.72;5005989;28;20219;-73
2023/01/16 06:04:01;;;;;;;26.47;14.20;;;;;;;4.21;94.68;96826.38;5008190;28;20221;-73
2023/01/16 06:07:22;;;;;;;25.00;13.57;;;;;;;4.21;93.82;96828.94;4990270;28;20184;-73
2023/01/16 06:10:44;;;;;;;25.90;13.57;;;;;;;4.08;93.99;96822.44;5004870;28;20222;-73
2023/01/16 06:14:05;;;;;;;24.77;13.43;;;;;;;3.97;94.83;96809.03;5006301;28;20187;-72
2023/01/16 06:17:25;;;;;;;25.30;14.77;;;;;;;4.26;93.84;96837.38;5005632;28;20198;-74
2023/01/16 06:20:46;;;;;;;26.47;15.07;;;;;;;4.05;95.02;96827.63;5004952;28;20197;-74
2023/01/16 06:24:07;;;;;;;29.50;17.93;;;;;;;3.87;95.86;96835.75;4987957;28;20226;-74
2023/01/16 06:27:28;;;;;;;28.17;17.10;;;;;;;4.01;96.00;96841.38;5007122;28;20220;-71
2023/01/16 06:30:48;;;;;;;37.73;21.30;;;;;;;4.07;95.86;96836.13;5007780;28;20189;-71
2023/01/16 06:34:09;;;;;;;40.27;22.30;;;;;;;3.87;96.77;96825.50;5007137;28;20708;-72
2023/01/16 06:37:30;;;;;;;61.00;29.67;;;;;;;3.75;96.77;96810.41;5004201;28;20189;-72
2023/01/16 06:40:55;;;;;;;52.93;24.90;;;;;;;3.89;97.31;96821.19;5004584;28;20213;-73
2023/01/16 06:44:16;;;;;;;33.23;18.53;;;;;;;3.78;97.08;96810.34;5007227;28;20260;-72
2023/01/16 06:47:37;;;;;;;35.13;20.03;;;;;;;3.93;96.91;96830.47;5005362;28;20607;-73
2023/01/16 06:50:59;;;;;;;35.60;22.17;;;;;;;4.02;96.41;96814.88;5006091;28;20193;-75
2023/01/16 06:54:19;;;;;;;40.43;23.40;;;;;;;4.04;95.72;96813.97;5004029;28;20199;-79
2023/01/16 06:57:40;;;;;;;48.63;26.90;;;;;;;4.01;96.19;96808.09;4988783;28;20197;-76
2023/01/16 07:01:01;;;;;;;39.50;23.70;;;;;;;4.08;95.87;96810.44;5007388;28;20257;-77
2023/01/16 07:04:22;;;;;;;39.40;20.97;;;;;;;4.02;96.57;96814.88;5004328;28;20192;-75
2023/01/16 07:07:43;;;;;;;30.67;18.47;;;;;;;4.06;95.60;96812.22;5003499;28;20662;-73
2023/01/16 07:11:04;;;;;;;28.20;17.07;;;;;;;4.16;96.20;96817.13;5006461;28;20207;-75
2023/01/16 07:25:39;;;;;;;27.47;16.57;;;;;;;4.48;94.02;96807.75;5005618;28;20222;-75
2023/01/16 07:28:59;;;;;;;23.83;14.40;;;;;;;4.35;92.83;96808.94;4986818;28;20202;-74
2023/01/16 07:32:20;;;;;;;23.47;13.43;;;;;;;4.60;92.62;96798.88;5004696;28;20195;-73
2023/01/16 07:35:41;;;;;;;23.37;14.87;;;;;;;4.48;93.06;96788.94;5005135;28;20191;-75
2023/01/16 07:39:01;;;;;;;24.87;14.57;;;;;;;4.59;91.47;96769.88;5007724;28;20201;-75
2023/01/16 07:42:22;;;;;;;19.03;11.47;;;;;;;4.60;90.60;96747.59;5009250;28;20215;-74
2023/01/16 07:45:43;;;;;;;19.57;11.97;;;;;;;4.84;90.78;96760.59;5010023;28;20183;-75
2023/01/16 07:49:04;;;;;;;15.03;10.00;;;;;;;4.81;90.25;96753.00;5010767;28;20201;-74
2023/01/16 07:52:25;;;;;;;18.90;11.10;;;;;;;4.83;89.00;96699.06;5010894;28;20353;-73
2023/01/16 07:55:46;;;;;;;22.67;13.53;;;;;;;4.95;88.52;96727.78;5008737;28;20188;-74
2023/01/16 07:59:06;;;;;;;23.97;13.37;;;;;;;5.45;87.27;96736.56;5009128;28;20190;-73
2023/01/16 08:02:27;;;;;;;25.13;15.57;;;;;;;5.53;86.52;96733.75;5010986;28;20224;-78
2023/01/16 08:05:55;;;;;;;17.77;13.03;;;;;;;5.60;85.98;96719.84;5009657;28;20192;-77
2023/01/16 08:09:16;;;;;;;23.50;13.90;;;;;;;5.83;85.25;96747.38;4977750;28;20189;-73
2023/01/16 08:12:37;;;;;;;19.03;11.90;;;;;;;5.89;85.32;96750.63;5008780;28;20200;-74
2023/01/16 08:15:58;;;;;;;16.57;10.50;;;;;;;6.09;84.03;96742.25;5009591;28;20664;-76
2023/01/16 08:19:20;;;;;;;17.53;10.23;;;;;;;6.06;84.79;96730.31;5010387;28;20271;-75
2023/01/16 08:22:41;;;;;;;16.30;10.37;;;;;;;5.91;84.65;96741.13;5008292;28;20228;-74
2023/01/16 08:26:02;;;;;;;20.77;13.47;;;;;;;5.87;84.91;96736.13;5007139;28;20287;-77
2023/01/16 08:29:23;;;;;;;17.37;10.50;;;;;;;6.06;84.23;96719.22;5006501;28;20503;-77
2023/01/16 08:32:43;;;;;;;25.27;12.83;;;;;;;6.29;83.42;96727.00;5007760;28;20283;-73
2023/01/16 08:36:04;;;;;;;14.70;9.77;;;;;;;6.33;82.00;96733.72;5009803;28;20193;-76
2023/01/16 08:39:27;;;;;;;18.33;11.50;;;;;;;6.33;81.89;96733.72;5006863;28;20330;-77
2023/01/16 08:53:45;;;;;;;14.13;9.53;;;;;;;6.15;83.18;96736.91;5007317;28;20682;-75
2023/01/16 08:57:05;;;;;;;19.70;13.07;;;;;;;6.34;83.23;96731.09;5009034;28;20191;-73
2023/01/16 09:00:26;;;;;;;14.47;10.03;;;;;;;6.23;83.46;96740.91;5007676;28;20571;-72
2023/01/16 09:03:47;;;;;;;14.37;10.13;;;;;;;6.31;81.83;96735.50;5008001;28;20280;-73
2023/01/16 09:07:08;;;;;;;20.83;11.13;;;;;;;6.42;82.61;96733.41;5009384;28;20190;-74
2023/01/16 09:10:29;;;;;;;17.00;11.67;;;;;;;6.53;82.34;96742.41;5007065;28;20198;-73
2023/01/16 09:13:50;;;;;;;19.37;11.73;;;;;;;6.72;81.31;96732.31;5007624;28;20191;-76
2023/01/16 09:17:11;;;;;;;18.77;10.47;;;;;;;6.23;83.24;96715.19;5005474;28;20198;-74
2023/01/16 09:20:31;;;;;;;19.47;11.77;;;;;;;6.30;82.02;96708.97;5008336;28;20272;-75
2023/01/16 09:23:52;;;;;;;19.27;12.60;;;;;;;6.64;80.81;96700.88;5006801;28;20233;-73
2023/01/16 09:27:13;;;;;;;18.57;11.67;;;;;;;6.79;79.70;96691.78;5006728;28;20199;-77
2023/01/16 09:30:33;;;;;;;16.07;10.20;;;;;;;6.82;79.20;96681.38;5007175;28;20748;-77
2023/01/16 09:33:54;;;;;;;16.63;11.00;;;;;;;6.95;79.37;96677.44;5008049;28;20215;-74
2023/01/16 09:37:15;;;;;;;19.27;11.10;;;;;;;7.13;77.49;96676.78;5008799;28;20761;-77
2023/01/16 09:40:35;;;;;;;20.07;11.63;;;;;;;7.32;76.63;96665.69;5008380;28;20199;-78
2023/01/16 09:43:40;;;;;;;17.37;10.37;;;;;;;7.40;76.15;96663.66;5004732;28;20299;-77
2023/01/16 09:47:04;;;;;;;14.17;9.87;;;;;;;7.62;75.02;96671.38;5007627;28;20187;-75
2023/01/16 09:50:13;;;;;;;20.60;11.87;;;;;;;7.73;74.29;96664.03;5006796;28;20674;-77
2023/01/16 10:01:01;;;;;;;14.33;9.57;;;;;;;7.32;73.38;96655.38;5006237;28;20191;-73
2023/01/16 10:04:31;;;;;;;13.10;9.37;;;;;;;7.50;73.20;96645.25;5007019;28;20191;-74
2023/01/16 10:07:50;;;;;;;16.40;11.27;;;;;;;7.43;72.99;96638.66;5007981;28;20681;-78
2023/01/16 10:11:14;;;;;;;20.90;12.40;;;;;;;7.35;73.54;96620.94;5009161;28;20187;-75
2023/01/16 10:14:17;;;;;;;17.67;11.10;;;;;;;7.67;72.61;96617.91;4995432;28;20202;-76
2023/01/16 10:17:36;;;;;;;30.23;15.53;;;;;;;7.45;72.79;96618.84;5005915;28;20195;-75
2023/01/16 10:20:37;;;;;;;20.10;12.03;;;;;;;7.24;73.33;96602.50;4991195;28;20243;-74
2023/01/16 10:23:32;;;;;;;14.67;9.87;;;;;;;7.13;73.34;96604.69;5008761;28;20280;-77
2023/01/16 10:26:16;;;;;;;17.23;10.27;;;;;;;7.26;73.25;96603.28;5005970;28;20226;-78
2023/01/16 10:29:19;;;;;;;14.40;9.47;;;;;;;6.76;74.08;96599.28;5007529;28;20187;-74
2023/01/16 10:32:08;;;;;;;19.87;11.13;;;;;;;6.86;75.10;96595.44;5009108;28;20202;-73
2023/01/16 10:35:11;;;;;;;17.70;11.57;;;;;;;7.04;75.03;96595.56;5003809;28;20289;-75
2023/01/16 10:38:36;;;;;;;13.13;9.17;;;;;;;7.24;73.03;96592.19;5008444;28;20835;-72
2023/01/16 10:52:24;;;;;;;24.27;13.97;;;;;;;7.66;71.86;96564.69;5005721;28;20191;-74
2023/01/16 10:55:45;;;;;;;18.37;10.80;;;;;;;7.68;72.95;96554.31;5006755;28;20191;-78
2023/01/16 10:59:09;;;;;;;20.07;10.97;;;;;;;7.92;72.05;96550.69;5005162;28;20195;-74
2023/01/16 11:02:30;;;;;;;18.40;10.47;;;;;;;8.00;71.43;96549.47;5008006;28;20232;-78
2023/01/16 11:06:02;;;;;;;14.43;9.17;;;;;;;8.04;71.69;96525.22;5005442;28;20210;-76
2023/01/16 11:09:23;;;;;;;14.57;9.07;;;;;;;8.14;70.05;96529.06;4989707;28;20248;-74
2023/01/16 11:20:00;;;;;;;13.53;8.03;;;;;;;8.00;70.84;96513.38;5008158;28;20202;-74
2023/01/16 11:23:09;;;;;;;10.50;7.97;;;;;;;7.86;70.55;96504.56;5023449;28;21027;-76
2023/01/16 11:26:30;;;;;;;9.53;7.03;;;;;;;7.42;71.85;96498.72;5011352;28;20187;-74
2023/01/16 11:29:53;;;;;;;8.50;6.87;;;;;;;7.70;71.37;96491.50;4994647;28;20575;-77
2023/01/16 11:33:14;;;;;;;18.13;8.53;;;;;;;7.96;70.60;96486.03;5010877;28;20202;-76
2023/01/16 11:36:34;;;;;;;10.93;7.97;;;;;;;7.76;71.11;96483.50;5007469;28;20246;-77
2023/01/16 11:39:58;;;;;;;10.20;6.93;;;;;;;7.85;70.82;96472.78;5009638;28;20202;-76
2023/01/16 11:46:58;;;;;;;13.30;8.23;;;;;;;7.80;71.73;96459.28;5010964;28;20282;-78
2023/01/16 11:50:18;;;;;;;14.37;9.67;;;;;;;7.86;72.66;96474.47;5010420;28;20202;-78
2023/01/16 11:53:39;;;;;;;17.83;9.83;;;;;;;8.04;72.50;96472.81;5007509;28;20207;-75
2023/01/16 11:56:49;;;;;;;17.57;9.37;;;;;;;7.96;71.72;96465.41;5007334;28;20198;-74
2023/01/16 11:59:47;;;;;;;13.33;8.43;;;;;;;7.93;71.39;96459.56;5008680;28;20187;-74
2023/01/16 12:03:31;;;;;;;15.63;8.50;;;;;;;7.78;72.35;96455.09;5010320;28;20246;-73
2023/01/16 12:06:41;;;;;;;10.80;7.70;;;;;;;7.95;71.07;96461.19;5011087;28;20288;-73
2023/01/16 12:09:57;;;;;;;12.37;8.50;;;;;;;7.97;71.35;96461.97;4976131;28;20199;-73
2023/01/16 12:16:15;;;;;;;17.43;10.50;;;;;;;7.74;72.12;96449.25;5010012;28;20195;-73
2023/01/16 12:19:22;;;;;;;12.87;8.57;;;;;;;7.74;72.74;96448.41;5010095;28;20813;-77
2023/01/16 12:22:23;;;;;;;16.20;10.73;;;;;;;7.79;72.97;96449.84;5010920;28;20601;-78
2023/01/16 12:25:37;;;;;;;12.73;8.53;;;;;;;7.73;73.18;96446.75;5011160;28;20507;-75
2023/01/16 12:28:52;;;;;;;13.50;8.97;;;;;;;7.73;72.03;96447.56;5010889;28;20690;-77
2023/01/16 12:32:14;;;;;;;19.83;10.60;;;;;;;7.91;71.93;96441.56;5007892;28;20234;-77
2023/01/16 12:35:33;;;;;;;12.90;8.23;;;;;;;7.79;71.84;96442.13;5010991;28;21187;-74
2023/01/16 12:38:57;;;;;;;15.53;8.90;;;;;;;7.77;71.00;96441.34;5009664;28;20186;-75
2023/01/16 12:45:55;;;;;;;13.33;9.47;;;;;;;7.29;73.30;96435.78;4998075;28;20199;-77
2023/01/16 12:49:01;;;;;;;18.67;11.10;;;;;;;6.90;75.33;96429.72;5006293;28;20203;-74
2023/01/16 12:51:45;;;;;;;21.37;14.30;;;;;;;6.93;74.96;96425.28;5009537;28;20198;-73
2023/01/16 12:55:20;;;;;;;18.17;11.77;;;;;;;7.06;75.00;96426.44;5008690;28;20208;-77
2023/01/16 12:58:56;;;;;;;19.67;11.77;;;;;;;7.09;74.56;96422.91;5008065;28;20191;-72
2023/01/16 13:02:09;;;;;;;14.80;9.67;;;;;;;6.96;75.66;96426.88;5008220;28;20721;-73
2023/01/16 13:05:33;;;;;;;16.83;11.70;;;;;;;7.00;74.79;96424.13;5009004;28;20277;-74
2023/01/16 13:09:09;;;;;;;16.30;10.63;;;;;;;6.89;76.24;96418.56;4993943;28;20187;-75
2023/01/16 13:16:10;;;;;;;16.53;10.27;;;;;;;6.84;74.70;96375.94;5007737;28;20187;-73
2023/01/16 13:19:31;;;;;;;14.37;9.13;;;;;;;7.20;74.38;96406.09;5005925;28;20252;-73
2023/01/16 13:22:55;;;;;;;14.40;8.83;;;;;;;7.07;75.00;96409.25;5008405;28;20226;-75
2023/01/16 13:26:21;;;;;;;14.40;7.77;;;;;;;7.00;75.81;96402.69;5007694;28;20191;-73
2023/01/16 13:29:45;;;;;;;11.70;8.73;;;;;;;7.15;74.45;96404.63;5008554;28;20627;-75
2023/01/16 13:32:46;;;;;;;12.33;9.27;;;;;;;7.10;74.61;96398.81;5007215;28;20187;-76
2023/01/16 13:35:58;;;;;;;15.33;10.37;;;;;;;7.23;73.99;96400.00;5005877;28;20276;-76
2023/01/16 13:39:23;;;;;;;18.57;10.03;;;;;;;7.30;74.53;96406.53;5010163;28;20198;-75
2023/01/16 13:42:44;;;;;;;18.27;11.30;;;;;;;7.34;73.00;96387.47;5007340;28;20231;-74
2023/01/16 13:46:11;;;;;;;14.53;10.10;;;;;;;7.33;74.45;96385.81;5007071;28;20219;-74
2023/01/16 13:49:31;;;;;;;15.50;9.53;;;;;;;7.12;75.17;96381.56;5007663;28;20194;-73
2023/01/16 13:52:58;;;;;;;14.33;8.63;;;;;;;7.20;73.87;96389.81;5039705;28;20266;-73
2023/01/16 13:56:05;;;;;;;13.03;8.37;;;;;;;7.19;73.91;96377.84;5008262;28;20191;-73
2023/01/16 13:59:25;;;;;;;14.90;9.57;;;;;;;7.22;74.67;96380.28;5006346;28;20233;-73
2023/01/16 14:02:37;;;;;;;15.67;10.77;;;;;;;7.19;74.82;96368.38;5007017;28;20259;-74
2023/01/16 14:05:36;;;;;;;15.63;9.90;;;;;;;7.14;74.87;96382.34;5007918;28;20925;-74
2023/01/16 14:11:47;;;;;;;17.00;10.40;;;;;;;7.13;75.93;96383.25;5006757;28;20186;-74
2023/01/16 14:18:55;;;;;;;18.10;11.93;;;;;;;6.99;77.04;96380.41;5005762;28;20317;-74
2023/01/16 14:21:36;;;;;;;19.63;12.23;;;;;;;6.81;77.36;96382.03;5008123;28;20219;-75
2023/01/16 14:25:21;;;;;;;19.17;12.70;;;;;;;6.92;77.78;96385.00;5005813;28;20195;-73
2023/01/16 14:28:41;;;;;;;22.53;13.03;;;;;;;6.70;78.21;96360.25;5004488;28;20193;-73
2023/01/16 14:32:02;;;;;;;21.40;13.57;;;;;;;6.61;78.17;96342.59;4991504;28;20194;-74
2023/01/16 14:35:37;;;;;;;22.50;13.07;;;;;;;6.74;78.11;96351.50;5007541;28;20674;-74
2023/01/16 14:38:58;;;;;;;22.70;13.50;;;;;;;6.69;79.45;96350.81;5006917;28;20710;-73
2023/01/16 14:55:32;;;;;;;23.70;15.63;;;;;;;6.75;78.90;96330.84;5005086;28;20274;-75
2023/01/16 14:58:01;;;;;;;23.07;14.93;;;;;;;6.68;79.09;96342.28;5000350;28;20536;-75
2023/01/16 15:00:34;;;;;;;24.07;14.83;;;;;;;6.71;78.98;96341.31;5007378;28;20189;-75
2023/01/16 15:03:12;;;;;;;31.73;15.30;;;;;;;6.81;78.47;96345.16;5005682;28;20233;-76
2023/01/16 15:05:50;;;;;;;20.67;12.43;;;;;;;6.61;79.40;96338.28;5007076;28;20673;-76
2023/01/16 15:08:36;;;;;;;20.47;12.23;;;;;;;6.48;79.87;96332.81;5004511;28;20273;-74